Inverkip, United Kingdom
Current Conditions -  °F | °C
As of 5:50 PM on Sunday 21 Dec 2014 (Local Time) from EGPF Reporting Station
Light Rain Light Rain  
Wind Chill: 52°   Ceiling: 800
Heat Index: 52°   Visibility: 4mi
Dew Point: 50°   Wind: 20mph
Humidity: 94%   Direction: 240°WSW
Pressure: 29.68"   Gusts: NA
Location:  55.91°N, 4.87°W
Report Text: EGPF 211750Z AUTO 24017KT 6000 -RA OVC008/// //////TCU 11/10 Q1005 RERA
Loading
Personal Weather Stations






























Interactive Weather Map New forecast layout! Learn more

10-Day Weather Forecast

Advertisements
Track Severe Weather on mobile